sensor_id;sensor_type;location;lat;lon;timestamp;pressure;altitude;pressure_sealevel;temperature;humidity
7760;BME280;3924;48.830;9.262;2023-05-10T00:01:45;97953.59;;;14.84;87.63
7760;BME280;3924;48.830;9.262;2023-05-10T00:04:13;97957.06;;;14.72;88.16
7760;BME280;3924;48.830;9.262;2023-05-10T00:06:40;97953.47;;;14.60;88.38
7760;BME280;3924;48.830;9.262;2023-05-10T00:09:07;97955.28;;;14.56;88.08
7760;BME280;3924;48.830;9.262;2023-05-10T00:11:34;97965.25;;;14.52;88.58
7760;BME280;3924;48.830;9.262;2023-05-10T00:14:01;97950.88;;;14.42;88.52
7760;BME280;3924;48.830;9.262;2023-05-10T00:16:28;97956.84;;;14.36;88.45
7760;BME280;3924;48.830;9.262;2023-05-10T00:19:09;97960.56;;;14.31;88.53
7760;BME280;3924;48.830;9.262;2023-05-10T00:21:36;97960.75;;;14.26;88.69
7760;BME280;3924;48.830;9.262;2023-05-10T00:24:03;97956.63;;;14.20;88.78
7760;BME280;3924;48.830;9.262;2023-05-10T00:26:30;97960.19;;;14.12;88.62
7760;BME280;3924;48.830;9.262;2023-05-10T00:29:01;97955.44;;;14.09;88.92
7760;BME280;3924;48.830;9.262;2023-05-10T00:31:31;97963.09;;;14.15;89.00
7760;BME280;3924;48.830;9.262;2023-05-10T00:33:58;97959.28;;;14.08;88.72
7760;BME280;3924;48.830;9.262;2023-05-10T00:36:26;97966.16;;;14.14;88.68
7760;BME280;3924;48.830;9.262;2023-05-10T00:38:54;97954.47;;;14.05;88.72
7760;BME280;3924;48.830;9.262;2023-05-10T00:41:20;97965.66;;;14.12;88.74
7760;BME280;3924;48.830;9.262;2023-05-10T00:43:50;97967.25;;;14.13;88.84
7760;BME280;3924;48.830;9.262;2023-05-10T00:46:17;97970.81;;;14.05;88.68
7760;BME280;3924;48.830;9.262;2023-05-10T00:48:48;97967.38;;;13.95;88.92
7760;BME280;3924;48.830;9.262;2023-05-10T00:51:18;97968.69;;;13.89;88.91
7760;BME280;3924;48.830;9.262;2023-05-10T00:53:46;97970.44;;;13.85;89.03
7760;BME280;3924;48.830;9.262;2023-05-10T00:56:19;97973.03;;;13.82;88.82
7760;BME280;3924;48.830;9.262;2023-05-10T00:58:50;97978.34;;;13.78;89.15
7760;BME280;3924;48.830;9.262;2023-05-10T01:01:19;97995.63;;;13.82;88.95
7760;BME280;3924;48.830;9.262;2023-05-10T01:03:46;97980.75;;;13.80;88.94
7760;BME280;3924;48.830;9.262;2023-05-10T01:06:15;97991.31;;;13.81;88.84
7760;BME280;3924;48.830;9.262;2023-05-10T01:08:42;97987.50;;;13.74;89.15
7760;BME280;3924;48.830;9.262;2023-05-10T01:11:09;97995.00;;;13.77;89.01
7760;BME280;3924;48.830;9.262;2023-05-10T01:13:39;97985.09;;;13.72;89.05
7760;BME280;3924;48.830;9.262;2023-05-10T01:16:07;97986.72;;;13.73;88.83
7760;BME280;3924;48.830;9.262;2023-05-10T01:18:40;97992.66;;;13.66;88.90
7760;BME280;3924;48.830;9.262;2023-05-10T01:21:33;97986.88;;;13.68;89.03
7760;BME280;3924;48.830;9.262;2023-05-10T01:32:59;98006.28;;;13.58;89.14
7760;BME280;3924;48.830;9.262;2023-05-10T01:35:37;98006.28;;;13.58;89.02
7760;BME280;3924;48.830;9.262;2023-05-10T01:38:17;98006.97;;;13.55;89.10
7760;BME280;3924;48.830;9.262;2023-05-10T01:40:51;98006.50;;;13.53;89.20
7760;BME280;3924;48.830;9.262;2023-05-10T01:43:22;98007.28;;;13.53;88.99
7760;BME280;3924;48.830;9.262;2023-05-10T01:46:07;98005.81;;;13.56;88.85
7760;BME280;3924;48.830;9.262;2023-05-10T01:48:40;98014.47;;;13.58;89.17
7760;BME280;3924;48.830;9.262;2023-05-10T01:51:16;98006.66;;;13.48;89.12
7760;BME280;3924;48.830;9.262;2023-05-10T01:53:45;98010.66;;;13.50;88.99
7760;BME280;3924;48.830;9.262;2023-05-10T01:56:15;98008.91;;;13.46;88.96
7760;BME280;3924;48.830;9.262;2023-05-10T01:58:45;98015.63;;;13.48;89.28
7760;BME280;3924;48.830;9.262;2023-05-10T02:01:15;98030.34;;;13.56;89.04
7760;BME280;3924;48.830;9.262;2023-05-10T02:03:46;98023.47;;;13.50;89.15
7760;BME280;3924;48.830;9.262;2023-05-10T02:06:14;98022.34;;;13.51;89.02
7760;BME280;3924;48.830;9.262;2023-05-10T02:08:46;98035.31;;;13.54;89.07
7760;BME280;3924;48.830;9.262;2023-05-10T02:11:14;98025.25;;;13.46;89.10
7760;BME280;3924;48.830;9.262;2023-05-10T02:13:41;98038.69;;;13.51;89.04
7760;BME280;3924;48.830;9.262;2023-05-10T02:16:10;98026.06;;;13.46;89.21
7760;BME280;3924;48.830;9.262;2023-05-10T02:18:39;98027.66;;;13.47;88.91
7760;BME280;3924;48.830;9.262;2023-05-10T02:21:08;98020.44;;;13.43;89.09
7760;BME280;3924;48.830;9.262;2023-05-10T02:23:36;98020.28;;;13.48;89.10
7760;BME280;3924;48.830;9.262;2023-05-10T02:26:03;98033.41;;;13.54;89.14
7760;BME280;3924;48.830;9.262;2023-05-10T02:28:32;98035.00;;;13.55;89.04
7760;BME280;3924;48.830;9.262;2023-05-10T02:31:00;98031.94;;;13.57;88.86
7760;BME280;3924;48.830;9.262;2023-05-10T02:33:28;98031.47;;;13.55;89.09
7760;BME280;3924;48.830;9.262;2023-05-10T02:35:57;98033.84;;;13.56;88.96
7760;BME280;3924;48.830;9.262;2023-05-10T02:38:25;98043.00;;;13.60;89.01
7760;BME280;3924;48.830;9.262;2023-05-10T02:40:53;98045.84;;;13.64;89.00
7760;BME280;3924;48.830;9.262;2023-05-10T02:43:22;98052.72;;;13.70;89.04
7760;BME280;3924;48.830;9.262;2023-05-10T02:45:49;98052.72;;;13.70;88.80
7760;BME280;3924;48.830;9.262;2023-05-10T02:48:16;98056.59;;;13.69;88.99
7760;BME280;3924;48.830;9.262;2023-05-10T02:50:44;98054.31;;;13.71;88.72
7760;BME280;3924;48.830;9.262;2023-05-10T02:53:21;98056.25;;;13.71;88.82
7760;BME280;3924;48.830;9.262;2023-05-10T02:55:51;98055.91;;;13.72;88.85
7760;BME280;3924;48.830;9.262;2023-05-10T02:58:18;98044.88;;;13.68;88.79
7760;BME280;3924;48.830;9.262;2023-05-10T03:00:48;98052.72;;;13.70;88.94
7760;BME280;3924;48.830;9.262;2023-05-10T03:03:14;98051.13;;;13.69;88.72
7760;BME280;3924;48.830;9.262;2023-05-10T03:05:41;98048.88;;;13.71;88.84
7760;BME280;3924;48.830;9.262;2023-05-10T03:08:08;98045.84;;;13.73;88.76
7760;BME280;3924;48.830;9.262;2023-05-10T03:10:41;98049.50;;;13.77;88.87
7760;BME280;3924;48.830;9.262;2023-05-10T03:13:56;98055.91;;;13.72;88.94
7760;BME280;3924;48.830;9.262;2023-05-10T03:16:35;98063.78;;;13.74;88.84
7760;BME280;3924;48.830;9.262;2023-05-10T03:19:19;98049.53;;;13.68;88.83
7760;BME280;3924;48.830;9.262;2023-05-10T03:21:50;98069.06;;;13.70;88.86
7760;BME280;3924;48.830;9.262;2023-05-10T03:24:20;98063.97;;;13.68;88.87
7760;BME280;3924;48.830;9.262;2023-05-10T03:26:48;98067.94;;;13.71;88.73
7760;BME280;3924;48.830;9.262;2023-05-10T03:29:17;98072.94;;;13.69;88.80
7760;BME280;3924;48.830;9.262;2023-05-10T03:31:43;98075.31;;;13.71;88.93
7760;BME280;3924;48.830;9.262;2023-05-10T03:34:10;98067.81;;;13.67;88.71
7760;BME280;3924;48.830;9.262;2023-05-10T03:36:37;98062.69;;;13.66;88.81
7760;BME280;3924;48.830;9.262;2023-05-10T03:39:04;98068.13;;;13.66;88.87
7760;BME280;3924;48.830;9.262;2023-05-10T03:41:30;98069.75;;;13.67;88.77
7760;BME280;3924;48.830;9.262;2023-05-10T03:43:57;98070.66;;;13.71;88.71
7760;BME280;3924;48.830;9.262;2023-05-10T03:46:24;98081.25;;;13.73;88.85
7760;BME280;3924;48.830;9.262;2023-05-10T03:48:51;98075.31;;;13.71;88.82
7760;BME280;3924;48.830;9.262;2023-05-10T03:51:18;98075.47;;;13.74;88.88
7760;BME280;3924;48.830;9.262;2023-05-10T03:53:44;98075.47;;;13.74;88.72
7760;BME280;3924;48.830;9.262;2023-05-10T03:56:11;98065.06;;;13.76;88.72
7760;BME280;3924;48.830;9.262;2023-05-10T03:58:38;98070.50;;;13.76;88.62
7760;BME280;3924;48.830;9.262;2023-05-10T04:01:04;98075.16;;;13.76;88.81
7760;BME280;3924;48.830;9.262;2023-05-10T04:03:32;98069.38;;;13.77;88.72
7760;BME280;3924;48.830;9.262;2023-05-10T04:06:00;98068.25;;;13.78;88.68
7760;BME280;3924;48.830;9.262;2023-05-10T04:08:27;98070.34;;;13.81;88.63
7760;BME280;3924;48.830;9.262;2023-05-10T04:11:04;98071.94;;;13.82;88.52
7760;BME280;3924;48.830;9.262;2023-05-10T04:13:31;98078.34;;;13.86;88.83
7760;BME280;3924;48.830;9.262;2023-05-10T04:15:58;98077.38;;;13.82;88.57
7760;BME280;3924;48.830;9.262;2023-05-10T04:18:25;98078.97;;;13.83;88.59
7760;BME280;3924;48.830;9.262;2023-05-10T04:20:52;98069.53;;;13.81;88.66
7760;BME280;3924;48.830;9.262;2023-05-10T04:23:18;98081.69;;;13.83;88.40
7760;BME280;3924;48.830;9.262;2023-05-10T04:25:45;98093.84;;;13.86;88.58
7760;BME280;3924;48.830;9.262;2023-05-10T04:28:12;98073.22;;;13.76;88.78
7760;BME280;3924;48.830;9.262;2023-05-10T04:30:39;98080.56;;;13.84;88.58
7760;BME280;3924;48.830;9.262;2023-05-10T04:33:06;98082.66;;;13.87;88.62
7760;BME280;3924;48.830;9.262;2023-05-10T04:35:34;98079.63;;;13.80;88.45
7760;BME280;3924;48.830;9.262;2023-05-10T04:38:02;98093.25;;;13.80;88.72
7760;BME280;3924;48.830;9.262;2023-05-10T04:40:28;98094.84;;;13.81;88.79
7760;BME280;3924;48.830;9.262;2023-05-10T04:42:55;98092.13;;;13.81;88.50
7760;BME280;3924;48.830;9.262;2023-05-10T04:45:22;98091.34;;;13.81;88.50
7760;BME280;3924;48.830;9.262;2023-05-10T04:47:48;98095.00;;;13.85;88.72
7760;BME280;3924;48.830;9.262;2023-05-10T04:50:15;98097.09;;;13.88;88.55
7760;BME280;3924;48.830;9.262;2023-05-10T04:52:42;98092.44;;;13.88;88.23
7760;BME280;3924;48.830;9.262;2023-05-10T04:55:08;98099.31;;;13.86;88.45
7760;BME280;3924;48.830;9.262;2023-05-10T04:57:39;98099.19;;;13.82;88.60
7760;BME280;3924;48.830;9.262;2023-05-10T05:00:06;98101.91;;;13.82;88.71
7760;BME280;3924;48.830;9.262;2023-05-10T05:02:33;98106.22;;;13.83;88.51
7760;BME280;3924;48.830;9.262;2023-05-10T05:05:00;98109.41;;;13.85;88.40
7760;BME280;3924;48.830;9.262;2023-05-10T05:07:26;98108.63;;;13.85;88.54
7760;BME280;3924;48.830;9.262;2023-05-10T05:09:53;98114.69;;;13.90;88.13
7760;BME280;3924;48.830;9.262;2023-05-10T05:12:19;98115.66;;;13.94;88.25
7760;BME280;3924;48.830;9.262;2023-05-10T05:14:46;98114.03;;;14.02;88.50
7760;BME280;3924;48.830;9.262;2023-05-10T05:17:12;98114.00;;;14.11;88.21
7760;BME280;3924;48.830;9.262;2023-05-10T05:19:39;98127.91;;;14.18;87.92
7760;BME280;3924;48.830;9.262;2023-05-10T05:22:06;98115.88;;;14.19;87.82
7760;BME280;3924;48.830;9.262;2023-05-10T05:24:37;98125.47;;;14.25;87.74
7760;BME280;3924;48.830;9.262;2023-05-10T05:27:04;98128.88;;;14.22;87.60
7760;BME280;3924;48.830;9.262;2023-05-10T05:29:31;98129.81;;;14.26;87.69
7760;BME280;3924;48.830;9.262;2023-05-10T05:31:57;98123.03;;;14.32;87.44
7760;BME280;3924;48.830;9.262;2023-05-10T05:34:24;98129.97;;;14.30;87.73
7760;BME280;3924;48.830;9.262;2023-05-10T05:36:51;98124.84;;;14.28;87.70
7760;BME280;3924;48.830;9.262;2023-05-10T05:39:18;98129.50;;;14.28;87.56
7760;BME280;3924;48.830;9.262;2023-05-10T05:41:44;98125.31;;;14.30;87.32
7760;BME280;3924;48.830;9.262;2023-05-10T05:44:11;98131.03;;;14.37;87.39
7760;BME280;3924;48.830;9.262;2023-05-10T05:46:37;98130.38;;;14.40;87.61
7760;BME280;3924;48.830;9.262;2023-05-10T05:49:04;98137.59;;;14.45;87.30
7760;BME280;3924;48.830;9.262;2023-05-10T05:51:30;98144.94;;;14.53;87.12
7760;BME280;3924;48.830;9.262;2023-05-10T05:53:57;98142.22;;;14.53;87.04
7760;BME280;3924;48.830;9.262;2023-05-10T05:56:24;98153.28;;;14.57;87.09
7760;BME280;3924;48.830;9.262;2023-05-10T05:58:51;98141.09;;;14.54;87.13
7760;BME280;3924;48.830;9.262;2023-05-10T06:01:17;98148.31;;;14.59;86.96
7760;BME280;3924;48.830;9.262;2023-05-10T06:03:44;98148.97;;;14.56;87.05
7760;BME280;3924;48.830;9.262;2023-05-10T06:06:15;98146.72;;;14.58;86.79
7760;BME280;3924;48.830;9.262;2023-05-10T06:08:42;98148.59;;;14.66;86.97
7760;BME280;3924;48.830;9.262;2023-05-10T06:11:08;98144.72;;;14.67;86.94
7760;BME280;3924;48.830;9.262;2023-05-10T06:13:35;98149.53;;;14.70;86.79
7760;BME280;3924;48.830;9.262;2023-05-10T06:16:02;98146.31;;;14.68;86.78
7760;BME280;3924;48.830;9.262;2023-05-10T06:18:32;98143.28;;;14.69;86.70
7760;BME280;3924;48.830;9.262;2023-05-10T06:20:58;98149.47;;;14.78;86.64
7760;BME280;3924;48.830;9.262;2023-05-10T06:23:25;98161.88;;;14.76;86.61
7760;BME280;3924;48.830;9.262;2023-05-10T06:25:52;98159.13;;;14.76;86.42
7760;BME280;3924;48.830;9.262;2023-05-10T06:28:18;98163.47;;;14.77;86.52
7760;BME280;3924;48.830;9.262;2023-05-10T06:30:45;98170.50;;;14.78;86.60
7760;BME280;3924;48.830;9.262;2023-05-10T06:33:11;98167.13;;;14.81;86.36
7760;BME280;3924;48.830;9.262;2023-05-10T06:35:38;98166.47;;;14.84;86.42
7760;BME280;3924;48.830;9.262;2023-05-10T06:38:05;98164.38;;;14.81;86.33
7760;BME280;3924;48.830;9.262;2023-05-10T06:40:32;98161.19;;;14.79;86.44
7760;BME280;3924;48.830;9.262;2023-05-10T06:42:59;98181.91;;;14.80;86.32
7760;BME280;3924;48.830;9.262;2023-05-10T06:45:25;98173.25;;;14.78;86.20
7760;BME280;3924;48.830;9.262;2023-05-10T06:47:52;98174.72;;;14.75;86.42
7760;BME280;3924;48.830;9.262;2023-05-10T06:50:19;98171.94;;;14.84;86.06
7760;BME280;3924;48.830;9.262;2023-05-10T06:52:45;98171.94;;;14.84;86.15
7760;BME280;3924;48.830;9.262;2023-05-10T06:55:12;98172.22;;;14.91;85.86
7760;BME280;3924;48.830;9.262;2023-05-10T06:57:39;98174.88;;;15.00;85.92
7760;BME280;3924;48.830;9.262;2023-05-10T07:00:06;98175.94;;;15.08;85.67
7760;BME280;3924;48.830;9.262;2023-05-10T07:02:33;98167.56;;;15.13;85.59
7760;BME280;3924;48.830;9.262;2023-05-10T07:05:00;98170.75;;;15.15;85.52
7760;BME280;3924;48.830;9.262;2023-05-10T07:07:28;98180.34;;;15.21;85.55
7760;BME280;3924;48.830;9.262;2023-05-10T07:09:55;98184.91;;;15.17;85.32
7760;BME280;3924;48.830;9.262;2023-05-10T07:12:24;98173.03;;;15.13;85.47
7760;BME280;3924;48.830;9.262;2023-05-10T07:14:51;98175.75;;;15.13;85.30
7760;BME280;3924;48.830;9.262;2023-05-10T07:17:18;98183.16;;;15.12;85.32
7760;BME280;3924;48.830;9.262;2023-05-10T07:19:45;98178.75;;;15.20;85.13
7760;BME280;3924;48.830;9.262;2023-05-10T07:22:11;98186.56;;;15.30;85.21
7760;BME280;3924;48.830;9.262;2023-05-10T07:24:41;98174.78;;;15.38;84.91
7760;BME280;3924;48.830;9.262;2023-05-10T07:27:09;98183.03;;;15.50;84.54
7760;BME280;3924;48.830;9.262;2023-05-10T07:29:36;98180.88;;;15.56;84.31
7760;BME280;3924;48.830;9.262;2023-05-10T07:32:04;98181.19;;;15.63;84.08
7760;BME280;3924;48.830;9.262;2023-05-10T07:34:30;98186.09;;;15.70;84.14
7760;BME280;3924;48.830;9.262;2023-05-10T07:36:58;98186.72;;;15.75;84.14
7760;BME280;3924;48.830;9.262;2023-05-10T07:39:26;98194.09;;;15.75;83.74
7760;BME280;3924;48.830;9.262;2023-05-10T07:41:54;98195.59;;;15.72;83.91
7760;BME280;3924;48.830;9.262;2023-05-10T07:44:21;98198.53;;;15.67;83.95
7760;BME280;3924;48.830;9.262;2023-05-10T07:46:52;98194.31;;;15.70;83.51
7760;BME280;3924;48.830;9.262;2023-05-10T07:49:18;98207.31;;;15.73;83.58
7760;BME280;3924;48.830;9.262;2023-05-10T07:51:45;98204.03;;;15.79;83.45
7760;BME280;3924;48.830;9.262;2023-05-10T07:54:16;98195.50;;;15.81;83.28
7760;BME280;3924;48.830;9.262;2023-05-10T07:56:43;98202.56;;;15.82;83.09
7760;BME280;3924;48.830;9.262;2023-05-10T07:59:15;98211.75;;;15.77;82.89
7760;BME280;3924;48.830;9.262;2023-05-10T08:01:42;98213.94;;;15.72;82.92
7760;BME280;3924;48.830;9.262;2023-05-10T08:04:09;98208.47;;;15.72;83.00
7760;BME280;3924;48.830;9.262;2023-05-10T08:06:36;98212.78;;;15.73;83.04
7760;BME280;3924;48.830;9.262;2023-05-10T08:09:03;98215.81;;;15.71;82.81
7760;BME280;3924;48.830;9.262;2023-05-10T08:11:29;98209.97;;;15.60;82.78
7760;BME280;3924;48.830;9.262;2023-05-10T08:13:57;98214.34;;;15.53;82.78
7760;BME280;3924;48.830;9.262;2023-05-10T08:16:23;98212.50;;;15.45;82.90
7760;BME280;3924;48.830;9.262;2023-05-10T08:18:50;98208.63;;;15.46;82.88
7760;BME280;3924;48.830;9.262;2023-05-10T08:21:17;98203.97;;;15.46;82.43
7760;BME280;3924;48.830;9.262;2023-05-10T08:23:44;98212.88;;;15.55;82.41
7760;BME280;3924;48.830;9.262;2023-05-10T08:26:11;98216.06;;;15.57;82.20
7760;BME280;3924;48.830;9.262;2023-05-10T08:28:38;98211.47;;;15.49;82.27
7760;BME280;3924;48.830;9.262;2023-05-10T08:31:06;98215.16;;;15.53;82.16
7760;BME280;3924;48.830;9.262;2023-05-10T08:33:32;98223.34;;;15.53;81.97
7760;BME280;3924;48.830;9.262;2023-05-10T08:36:01;98219.28;;;15.59;81.78
7760;BME280;3924;48.830;9.262;2023-05-10T08:38:34;98207.50;;;15.68;81.54
7760;BME280;3924;48.830;9.262;2023-05-10T08:41:02;98218.28;;;15.85;81.31
7760;BME280;3924;48.830;9.262;2023-05-10T08:43:29;98220.47;;;15.92;80.91
7760;BME280;3924;48.830;9.262;2023-05-10T08:46:00;98213.41;;;15.91;80.81
7760;BME280;3924;48.830;9.262;2023-05-10T08:48:29;98223.28;;;15.83;80.74
7760;BME280;3924;48.830;9.262;2023-05-10T08:50:58;98222.25;;;15.75;80.71
7760;BME280;3924;48.830;9.262;2023-05-10T08:53:27;98228.50;;;15.76;80.88
7760;BME280;3924;48.830;9.262;2023-05-10T08:55:55;98228.66;;;15.79;80.51
7760;BME280;3924;48.830;9.262;2023-05-10T08:58:22;98231.50;;;15.83;80.30
7760;BME280;3924;48.830;9.262;2023-05-10T09:00:49;98226.78;;;15.92;80.18
7760;BME280;3924;48.830;9.262;2023-05-10T09:03:19;98225.41;;;15.98;79.66
7760;BME280;3924;48.830;9.262;2023-05-10T09:05:46;98232.19;;;16.13;79.40
7760;BME280;3924;48.830;9.262;2023-05-10T09:08:13;98235.75;;;16.26;78.91
7760;BME280;3924;48.830;9.262;2023-05-10T09:10:43;98222.41;;;16.24;78.77
7760;BME280;3924;48.830;9.262;2023-05-10T09:13:10;98234.41;;;16.32;78.49
7760;BME280;3924;48.830;9.262;2023-05-10T09:15:38;98240.91;;;16.39;78.29
7760;BME280;3924;48.830;9.262;2023-05-10T09:18:05;98235.38;;;16.48;78.03
7760;BME280;3924;48.830;9.262;2023-05-10T09:20:32;98236.19;;;16.61;77.82
7760;BME280;3924;48.830;9.262;2023-05-10T09:22:58;98239.47;;;16.66;77.21
7760;BME280;3924;48.830;9.262;2023-05-10T09:25:28;98239.25;;;16.59;77.24
7760;BME280;3924;48.830;9.262;2023-05-10T09:27:57;98247.00;;;16.57;77.04
7760;BME280;3924;48.830;9.262;2023-05-10T09:30:29;98250.09;;;16.56;77.20
7760;BME280;3924;48.830;9.262;2023-05-10T09:32:59;98260.47;;;16.62;76.74
7760;BME280;3924;48.830;9.262;2023-05-10T09:35:28;98247.69;;;16.54;76.73
7760;BME280;3924;48.830;9.262;2023-05-10T09:37:59;98249.41;;;16.59;76.62
7760;BME280;3924;48.830;9.262;2023-05-10T09:40:28;98255.00;;;16.62;76.46
7760;BME280;3924;48.830;9.262;2023-05-10T09:45:30;98254.31;;;16.65;76.04
7760;BME280;3924;48.830;9.262;2023-05-10T09:48:03;98257.31;;;16.73;75.76
7760;BME280;3924;48.830;9.262;2023-05-10T09:50:32;98253.22;;;16.79;75.54
7760;BME280;3924;48.830;9.262;2023-05-10T09:53:03;98243.19;;;16.83;75.06
7760;BME280;3924;48.830;9.262;2023-05-10T09:55:40;98243.19;;;16.83;75.09
7760;BME280;3924;48.830;9.262;2023-05-10T09:58:07;98266.91;;;16.79;74.85
7760;BME280;3924;48.830;9.262;2023-05-10T10:00:39;98253.66;;;16.68;75.03
7760;BME280;3924;48.830;9.262;2023-05-10T10:03:14;98256.06;;;16.70;74.67
7760;BME280;3924;48.830;9.262;2023-05-10T10:05:42;98253.41;;;16.61;74.73
7760;BME280;3924;48.830;9.262;2023-05-10T10:08:10;98261.00;;;16.44;74.90
7760;BME280;3924;48.830;9.262;2023-05-10T10:10:39;98254.69;;;16.31;75.17
7760;BME280;3924;48.830;9.262;2023-05-10T10:13:07;98253.66;;;16.23;75.18
7760;BME280;3924;48.830;9.262;2023-05-10T10:15:35;98261.50;;;16.25;75.11
7760;BME280;3924;48.830;9.262;2023-05-10T10:18:02;98262.78;;;16.27;75.07
7760;BME280;3924;48.830;9.262;2023-05-10T10:20:31;98255.50;;;16.31;75.12
7760;BME280;3924;48.830;9.262;2023-05-10T10:22:57;98257.34;;;16.39;74.71
7760;BME280;3924;48.830;9.262;2023-05-10T10:25:24;98253.97;;;16.55;74.13
7760;BME280;3924;48.830;9.262;2023-05-10T10:30:34;98257.09;;;16.78;73.34
7760;BME280;3924;48.830;9.262;2023-05-10T10:33:28;98247.00;;;16.57;73.60
7760;BME280;3924;48.830;9.262;2023-05-10T10:36:02;98254.53;;;16.48;73.65
7760;BME280;3924;48.830;9.262;2023-05-10T10:52:21;98264.34;;;16.61;72.63
7760;BME280;3924;48.830;9.262;2023-05-10T10:57:33;98255.97;;;16.79;72.38
7760;BME280;3924;48.830;9.262;2023-05-10T11:02:56;98260.09;;;17.09;71.37
7760;BME280;3924;48.830;9.262;2023-05-10T11:07:56;98275.94;;;17.53;70.09
7760;BME280;3924;48.830;9.262;2023-05-10T11:10:25;98260.06;;;17.46;70.13
7760;BME280;3924;48.830;9.262;2023-05-10T11:15:19;98266.69;;;17.20;70.09
7760;BME280;3924;48.830;9.262;2023-05-10T11:17:49;98259.28;;;16.97;70.29
7760;BME280;3924;48.830;9.262;2023-05-10T11:20:18;98274.13;;;16.83;70.39
7760;BME280;3924;48.830;9.262;2023-05-10T11:22:50;98268.63;;;16.71;70.47
7760;BME280;3924;48.830;9.262;2023-05-10T11:25:19;98252.03;;;16.67;70.37
7760;BME280;3924;48.830;9.262;2023-05-10T11:27:47;98259.78;;;16.65;70.30
7760;BME280;3924;48.830;9.262;2023-05-10T11:30:14;98265.09;;;16.71;70.17
7760;BME280;3924;48.830;9.262;2023-05-10T11:32:42;98260.19;;;16.76;69.75
7760;BME280;3924;48.830;9.262;2023-05-10T11:35:10;98269.22;;;16.89;69.40
7760;BME280;3924;48.830;9.262;2023-05-10T11:37:38;98268.75;;;16.87;69.50
7760;BME280;3924;48.830;9.262;2023-05-10T11:40:08;98259.50;;;16.91;69.06
7760;BME280;3924;48.830;9.262;2023-05-10T11:42:37;98268.06;;;16.90;68.77
7760;BME280;3924;48.830;9.262;2023-05-10T11:45:04;98273.19;;;16.79;69.11
7760;BME280;3924;48.830;9.262;2023-05-10T11:47:31;98276.03;;;16.71;69.02
7760;BME280;3924;48.830;9.262;2023-05-10T11:49:58;98266.06;;;16.66;68.93
7760;BME280;3924;48.830;9.262;2023-05-10T11:52:29;98278.06;;;16.74;68.82
7760;BME280;3924;48.830;9.262;2023-05-10T11:55:01;98278.88;;;16.74;68.70
7760;BME280;3924;48.830;9.262;2023-05-10T11:57:29;98282.44;;;16.75;68.44
7760;BME280;3924;48.830;9.262;2023-05-10T11:59:57;98284.94;;;16.80;68.18
7760;BME280;3924;48.830;9.262;2023-05-10T12:02:24;98282.31;;;16.83;67.95
7760;BME280;3924;48.830;9.262;2023-05-10T12:04:51;98283.72;;;16.89;67.88
7760;BME280;3924;48.830;9.262;2023-05-10T12:07:18;98291.91;;;16.89;67.74
7760;BME280;3924;48.830;9.262;2023-05-10T12:10:06;98285.88;;;16.96;67.64
7760;BME280;3924;48.830;9.262;2023-05-10T12:12:42;98290.06;;;16.81;67.64
7760;BME280;3924;48.830;9.262;2023-05-10T12:15:17;98296.97;;;16.66;67.89
7760;BME280;3924;48.830;9.262;2023-05-10T12:17:45;98297.63;;;16.51;67.82
7760;BME280;3924;48.830;9.262;2023-05-10T12:20:15;98303.28;;;16.34;67.95
7760;BME280;3924;48.830;9.262;2023-05-10T12:22:54;98300.59;;;16.25;68.18
7760;BME280;3924;48.830;9.262;2023-05-10T12:25:22;98302.09;;;16.23;68.41
7760;BME280;3924;48.830;9.262;2023-05-10T12:27:54;98309.16;;;16.24;67.72
7760;BME280;3924;48.830;9.262;2023-05-10T12:30:25;98313.22;;;16.18;68.01
7760;BME280;3924;48.830;9.262;2023-05-10T12:32:52;98314.38;;;16.17;67.83
7760;BME280;3924;48.830;9.262;2023-05-10T12:35:19;98310.28;;;16.23;67.77
7760;BME280;3924;48.830;9.262;2023-05-10T12:37:48;98316.97;;;16.34;67.36
7760;BME280;3924;48.830;9.262;2023-05-10T12:40:14;98312.78;;;16.49;67.10
7760;BME280;3924;48.830;9.262;2023-05-10T12:42:41;98312.91;;;16.52;66.83
7760;BME280;3924;48.830;9.262;2023-05-10T12:45:08;98306.84;;;16.47;66.71
7760;BME280;3924;48.830;9.262;2023-05-10T12:47:35;98314.44;;;16.62;66.26
7760;BME280;3924;48.830;9.262;2023-05-10T12:50:03;98320.75;;;16.75;65.95
7760;BME280;3924;48.830;9.262;2023-05-10T12:52:31;98313.66;;;16.74;65.80
7760;BME280;3924;48.830;9.262;2023-05-10T12:54:59;98325.75;;;16.73;65.72
7760;BME280;3924;48.830;9.262;2023-05-10T12:57:26;98323.19;;;16.67;65.53
7760;BME280;3924;48.830;9.262;2023-05-10T12:59:54;98319.84;;;16.71;65.49
7760;BME280;3924;48.830;9.262;2023-05-10T13:02:20;98310.03;;;16.70;65.25
7760;BME280;3924;48.830;9.262;2023-05-10T13:04:49;98318.56;;;16.68;nan
7760;BME280;3924;48.830;9.262;2023-05-10T13:07:16;98316.38;;;16.61;65.04
7760;BME280;3924;48.830;9.262;2023-05-10T13:09:43;98318.25;;;16.49;65.31
7760;BME280;3924;48.830;9.262;2023-05-10T13:12:09;98315.28;;;16.41;65.11
7760;BME280;3924;48.830;9.262;2023-05-10T13:14:36;98321.41;;;16.38;65.24
7760;BME280;3924;48.830;9.262;2023-05-10T13:17:02;98314.00;;;16.39;65.07
7760;BME280;3924;48.830;9.262;2023-05-10T13:19:29;98311.19;;;16.48;64.92
7760;BME280;3924;48.830;9.262;2023-05-10T13:21:57;98308.47;;;16.48;64.61
7760;BME280;3924;48.830;9.262;2023-05-10T13:24:24;98311.50;;;16.46;64.61
7760;BME280;3924;48.830;9.262;2023-05-10T13:26:51;98308.31;;;16.44;64.86
7760;BME280;3924;48.830;9.262;2023-05-10T13:29:17;98298.31;;;16.48;64.74
7760;BME280;3924;48.830;9.262;2023-05-10T13:31:44;98298.31;;;16.48;64.48
7760;BME280;3924;48.830;9.262;2023-05-10T13:34:11;98301.25;;;16.43;64.71
7760;BME280;3924;48.830;9.262;2023-05-10T13:36:37;98293.59;;;16.36;64.58
7760;BME280;3924;48.830;9.262;2023-05-10T13:39:04;98295.06;;;16.34;64.41
7760;BME280;3924;48.830;9.262;2023-05-10T13:41:31;98296.66;;;16.35;64.52
7760;BME280;3924;48.830;9.262;2023-05-10T13:43:58;98291.06;;;16.31;64.55
7760;BME280;3924;48.830;9.262;2023-05-10T13:46:25;98300.06;;;16.32;64.45
7760;BME280;3924;48.830;9.262;2023-05-10T13:48:51;98293.59;;;16.36;64.06
7760;BME280;3924;48.830;9.262;2023-05-10T13:51:18;98290.56;;;16.50;63.70
7760;BME280;3924;48.830;9.262;2023-05-10T13:53:44;98292.47;;;16.71;63.61
7760;BME280;3924;48.830;9.262;2023-05-10T13:56:11;98285.06;;;16.83;63.26
7760;BME280;3924;48.830;9.262;2023-05-10T13:58:38;98290.44;;;16.92;62.90
7760;BME280;3924;48.830;9.262;2023-05-10T14:01:04;98291.91;;;16.89;62.78
7760;BME280;3924;48.830;9.262;2023-05-10T14:03:31;98288.59;;;16.84;62.72
7760;BME280;3924;48.830;9.262;2023-05-10T14:05:58;98291.56;;;16.79;63.00
7760;BME280;3924;48.830;9.262;2023-05-10T14:08:25;98289.72;;;16.71;62.95